createdAt,value
2019-03-20T00:01:54.652Z,7.10
2019-03-20T00:04:26.394Z,7.13
2019-03-20T00:06:56.682Z,7.13
2019-03-20T00:09:27.077Z,7.57
2019-03-20T00:11:58.908Z,9.20
2019-03-20T00:14:30.557Z,7.30
2019-03-20T00:17:00.714Z,7.90
2019-03-20T00:19:32.784Z,7.37
2019-03-20T00:22:04.104Z,8.23
2019-03-20T00:24:35.396Z,7.60
2019-03-20T00:27:06.350Z,8.23
2019-03-20T00:29:38.636Z,7.77
2019-03-20T00:32:10.242Z,8.83
2019-03-20T00:34:40.464Z,8.55
2019-03-20T00:37:10.787Z,8.47
2019-03-20T00:39:42.034Z,7.83
2019-03-20T00:42:12.322Z,8.80
2019-03-20T00:44:42.498Z,8.10
2019-03-20T00:47:14.408Z,9.50
2019-03-20T00:49:45.792Z,8.87
2019-03-20T00:52:15.974Z,9.17
2019-03-20T00:54:47.017Z,8.67
2019-03-20T00:57:18.230Z,9.45
2019-03-20T00:59:49.566Z,8.90
2019-03-20T01:02:20.076Z,8.80
2019-03-20T01:04:50.260Z,9.17
2019-03-20T01:07:22.068Z,10.20
2019-03-20T01:09:52.650Z,11.20
2019-03-20T01:12:23.085Z,10.23
2019-03-20T01:14:53.304Z,10.05
2019-03-20T01:17:23.635Z,9.75
2019-03-20T01:19:55.643Z,10.00
2019-03-20T01:22:26.016Z,10.43
2019-03-20T01:24:56.316Z,12.37
2019-03-20T01:27:26.518Z,12.97
2019-03-20T01:29:56.733Z,10.60
2019-03-20T01:32:27.081Z,10.37
2019-03-20T01:34:58.104Z,10.43
2019-03-20T01:37:28.361Z,11.63
2019-03-20T01:39:59.439Z,13.50
2019-03-20T01:42:29.665Z,11.13
2019-03-20T01:44:59.987Z,10.72
2019-03-20T01:47:31.104Z,10.85
2019-03-20T01:50:02.425Z,11.13
2019-03-20T01:52:32.685Z,10.83
2019-03-20T01:55:04.803Z,12.20
2019-03-20T01:57:35.137Z,10.83
2019-03-20T02:00:05.907Z,12.20
2019-03-20T02:02:36.111Z,12.80
2019-03-20T02:05:06.798Z,10.30
2019-03-20T02:07:36.963Z,12.35
2019-03-20T02:10:09.009Z,13.27
2019-03-20T02:12:39.146Z,12.20
2019-03-20T02:15:12.628Z,12.47
2019-03-20T02:17:43.552Z,14.25
2019-03-20T02:20:15.243Z,13.48
2019-03-20T02:22:45.549Z,12.33
2019-03-20T02:25:15.795Z,12.37
2019-03-20T02:27:46.098Z,13.67
2019-03-20T02:30:17.265Z,13.40
2019-03-20T02:32:48.978Z,16.35
2019-03-20T02:35:19.941Z,13.18
2019-03-20T02:38:13.167Z,12.37
2019-03-20T02:41:11.192Z,14.90
2019-03-20T02:44:07.556Z,13.20
2019-03-20T02:47:03.043Z,15.23
2019-03-20T02:49:59.602Z,15.40
2019-03-20T02:52:55.897Z,17.57
2019-03-20T02:55:53.302Z,18.40
2019-03-20T02:58:48.885Z,19.00
2019-03-20T03:01:46.480Z,21.30
2019-03-20T03:04:43.322Z,18.35
2019-03-20T03:07:39.146Z,19.53
2019-03-20T03:10:34.857Z,20.90
2019-03-20T03:13:30.716Z,16.10
2019-03-20T03:16:27.241Z,20.70
2019-03-20T03:19:22.799Z,21.25
2019-03-20T03:22:19.428Z,21.20
2019-03-20T03:25:17.065Z,18.07
2019-03-20T03:28:12.843Z,18.30
2019-03-20T03:31:09.460Z,22.70
2019-03-20T03:34:05.265Z,22.33
2019-03-20T03:37:01.817Z,21.50
2019-03-20T03:39:56.779Z,23.27
2019-03-20T03:42:53.331Z,22.27
2019-03-20T03:45:49.941Z,26.17
2019-03-20T03:48:45.493Z,23.90
2019-03-20T03:51:42.803Z,25.65
2019-03-20T03:54:39.575Z,25.40
2019-03-20T03:57:36.056Z,23.37
2019-03-20T04:00:31.897Z,25.00
2019-03-20T04:03:29.550Z,24.40
2019-03-20T04:06:35.848Z,25.73
2019-03-20T04:09:28.656Z,26.80
2019-03-20T04:12:26.290Z,25.90
2019-03-20T04:15:22.088Z,21.50
2019-03-20T04:18:18.348Z,23.30
2019-03-20T04:21:14.233Z,23.80
2019-03-20T04:24:11.324Z,23.77
2019-03-20T04:27:06.320Z,25.83
2019-03-20T04:30:02.293Z,28.40
2019-03-20T04:33:00.053Z,26.07
2019-03-20T04:35:55.807Z,22.20
2019-03-20T04:38:52.378Z,26.93
2019-03-20T04:41:48.143Z,27.70
2019-03-20T04:44:44.638Z,28.73
2019-03-20T04:47:40.323Z,29.90
2019-03-20T04:50:36.481Z,28.73
2019-03-20T04:53:32.517Z,37.40
2019-03-20T04:56:29.227Z,34.87
2019-03-20T04:59:27.159Z,35.63
2019-03-20T05:02:23.956Z,41.93
2019-03-20T05:05:20.773Z,44.50
2019-03-20T05:08:15.971Z,36.90
2019-03-20T05:11:12.439Z,39.73
2019-03-20T05:14:08.889Z,39.17
2019-03-20T05:17:05.809Z,43.38
2019-03-20T05:20:01.327Z,37.30
2019-03-20T05:22:59.135Z,48.37
2019-03-20T05:25:54.922Z,40.10
2019-03-20T05:28:51.667Z,41.10
2019-03-20T05:31:48.428Z,48.43
2019-03-20T05:34:45.003Z,46.50
2019-03-20T05:37:41.706Z,40.70
2019-03-20T05:40:36.814Z,40.07
2019-03-20T05:43:33.911Z,52.10
2019-03-20T05:46:29.900Z,49.63
2019-03-20T05:49:26.633Z,47.90
2019-03-20T05:52:22.003Z,53.87
2019-03-20T05:55:18.512Z,48.47
2019-03-20T05:58:16.251Z,50.10
2019-03-20T06:01:13.094Z,45.83
2019-03-20T06:04:10.960Z,47.47
2019-03-20T06:07:06.742Z,57.50
2019-03-20T06:10:03.560Z,37.73
2019-03-20T06:12:59.085Z,40.67
2019-03-20T06:15:55.894Z,45.90
2019-03-20T06:18:52.148Z,45.00
2019-03-20T06:21:47.960Z,41.10
2019-03-20T06:24:44.674Z,45.17
2019-03-20T06:27:40.481Z,48.03
2019-03-20T06:30:36.304Z,49.63
2019-03-20T06:33:32.028Z,49.63
2019-03-20T06:36:28.896Z,43.27
2019-03-20T06:39:25.616Z,38.57
2019-03-20T06:42:22.238Z,40.40
2019-03-20T06:45:18.698Z,43.10
2019-03-20T06:48:15.402Z,45.63
2019-03-20T06:51:10.516Z,45.13
2019-03-20T06:54:08.240Z,50.93
2019-03-20T06:57:04.768Z,61.43
2019-03-20T07:00:24.657Z,36.93
2019-03-20T07:03:22.138Z,41.88
2019-03-20T07:06:28.022Z,52.13
2019-03-20T07:09:51.434Z,44.93
2019-03-20T07:12:46.937Z,37.23
2019-03-20T07:15:42.785Z,34.63
2019-03-20T07:18:38.780Z,43.03
2019-03-20T07:21:34.503Z,34.67
2019-03-20T07:24:32.325Z,35.20
2019-03-20T07:27:27.629Z,42.83
2019-03-20T07:30:24.226Z,35.00
2019-03-20T07:33:20.070Z,32.67
2019-03-20T07:36:17.710Z,22.00
2019-03-20T07:39:13.282Z,28.43
2019-03-20T07:42:08.978Z,24.07
2019-03-20T07:45:05.479Z,22.53
2019-03-20T07:48:03.462Z,22.60
2019-03-20T07:50:58.999Z,17.57
2019-03-20T07:53:55.853Z,16.50
2019-03-20T07:56:51.515Z,15.67
2019-03-20T07:59:47.983Z,12.43
2019-03-20T08:02:46.661Z,13.40
2019-03-20T08:05:42.694Z,9.57
2019-03-20T08:08:39.063Z,11.60
2019-03-20T08:11:34.907Z,9.27
2019-03-20T08:14:31.659Z,9.43
2019-03-20T08:17:27.520Z,8.93
2019-03-20T08:20:24.037Z,8.57
2019-03-20T08:23:19.564Z,9.30
2019-03-20T08:26:17.054Z,8.37
2019-03-20T08:29:13.395Z,8.38
2019-03-20T08:32:10.025Z,7.77
2019-03-20T08:35:06.754Z,8.10
2019-03-20T08:38:02.584Z,6.37
2019-03-20T08:40:59.121Z,6.87
2019-03-20T08:43:54.662Z,7.07
2019-03-20T08:46:51.783Z,5.93
2019-03-20T08:49:47.034Z,6.90
2019-03-20T08:52:44.035Z,5.90
2019-03-20T08:55:40.619Z,5.90
2019-03-20T08:58:37.291Z,6.60
2019-03-20T09:04:16.415Z,5.50
2019-03-20T09:06:47.430Z,4.87
2019-03-20T09:09:19.203Z,5.00
2019-03-20T09:11:49.463Z,4.90
2019-03-20T09:14:19.754Z,5.30
2019-03-20T09:16:50.729Z,4.63
2019-03-20T09:19:21.728Z,4.33
2019-03-20T09:21:52.014Z,4.60
2019-03-20T09:24:22.315Z,4.50
2019-03-20T09:26:52.510Z,4.70
2019-03-20T09:29:22.992Z,4.50
2019-03-20T09:31:53.290Z,4.83
2019-03-20T09:34:23.617Z,4.87
2019-03-20T09:36:54.655Z,4.27
2019-03-20T09:39:25.080Z,4.00
2019-03-20T09:41:57.302Z,3.83
2019-03-20T09:44:27.572Z,3.67
2019-03-20T09:46:57.773Z,3.93
2019-03-20T09:49:28.070Z,3.40
2019-03-20T09:51:59.223Z,2.90
2019-03-20T09:54:29.642Z,3.30
2019-03-20T09:56:59.993Z,3.20
2019-03-20T09:59:30.285Z,3.20
2019-03-20T10:02:02.785Z,3.15
2019-03-20T10:04:33.705Z,3.13
2019-03-20T10:07:03.917Z,2.83
2019-03-20T10:09:34.239Z,3.67
2019-03-20T10:12:06.590Z,3.20
2019-03-20T10:14:36.807Z,3.65
2019-03-20T10:17:08.313Z,3.37
2019-03-20T10:19:38.615Z,3.37
2019-03-20T10:22:08.910Z,3.07
2019-03-20T10:24:39.176Z,3.73
2019-03-20T10:27:09.457Z,3.10
2019-03-20T10:29:39.736Z,3.70
2019-03-20T10:32:09.974Z,3.60
2019-03-20T10:34:40.282Z,3.30
2019-03-20T10:37:10.538Z,3.13
2019-03-20T10:39:40.696Z,3.30
2019-03-20T10:42:10.918Z,3.40
2019-03-20T10:45:03.986Z,3.50
2019-03-20T10:48:01.564Z,3.42
2019-03-20T10:50:57.025Z,3.93
2019-03-20T10:53:53.827Z,4.60
2019-03-20T10:56:49.409Z,4.10
2019-03-20T10:59:45.392Z,4.40
2019-03-20T11:02:40.757Z,3.87
2019-03-20T11:05:38.366Z,3.93
2019-03-20T11:08:35.859Z,4.03
2019-03-20T11:11:32.426Z,3.70
2019-03-20T11:14:29.158Z,4.30
2019-03-20T11:17:24.638Z,3.80
2019-03-20T11:20:21.151Z,3.87
2019-03-20T11:23:15.881Z,4.30
2019-03-20T11:26:12.782Z,4.20
2019-03-20T11:29:09.346Z,4.40
2019-03-20T11:32:07.098Z,3.80
2019-03-20T11:35:02.693Z,3.73
2019-03-20T11:38:00.237Z,4.23
2019-03-20T11:40:55.811Z,3.80
2019-03-20T11:43:51.889Z,4.00
2019-03-20T11:46:48.007Z,4.27
2019-03-20T11:49:44.523Z,3.80
2019-03-20T11:52:41.173Z,4.73
2019-03-20T11:55:36.694Z,4.63
2019-03-20T11:58:34.513Z,4.63
2019-03-20T12:01:30.320Z,4.20
2019-03-20T12:04:31.485Z,3.77
2019-03-20T12:07:28.631Z,4.30
2019-03-20T12:10:31.862Z,4.00
2019-03-20T12:13:28.620Z,4.20
2019-03-20T12:16:24.238Z,4.77
2019-03-20T12:19:21.381Z,3.80
2019-03-20T12:22:16.902Z,3.80
2019-03-20T12:25:13.510Z,4.20
2019-03-20T12:28:08.971Z,4.40
2019-03-20T12:31:06.685Z,4.53
2019-03-20T12:34:02.237Z,3.80
2019-03-20T12:36:57.670Z,4.80
2019-03-20T12:39:53.673Z,4.13
2019-03-20T12:42:49.602Z,3.85
2019-03-20T12:45:46.234Z,4.57
2019-03-20T12:48:42.994Z,4.63
2019-03-20T12:51:39.252Z,4.07
2019-03-20T12:54:34.955Z,4.17
2019-03-20T12:57:31.535Z,4.10
2019-03-20T13:00:31.227Z,4.03
2019-03-20T13:03:30.658Z,4.43
2019-03-20T13:06:24.197Z,4.28
2019-03-20T13:09:23.494Z,4.40
2019-03-20T13:12:20.144Z,3.97
2019-03-20T13:15:15.820Z,4.60
2019-03-20T13:18:12.390Z,4.05
2019-03-20T13:21:08.203Z,5.20
2019-03-20T13:24:05.111Z,4.90
2019-03-20T13:27:00.423Z,3.90
2019-03-20T13:29:57.912Z,4.47
2019-03-20T13:32:53.344Z,4.10
2019-03-20T13:35:49.349Z,4.27
2019-03-20T13:38:45.904Z,4.33
2019-03-20T13:41:41.588Z,4.57
2019-03-20T13:44:38.303Z,4.27
2019-03-20T13:47:50.107Z,4.80
2019-03-20T13:50:48.957Z,4.80
2019-03-20T13:53:44.633Z,4.33
2019-03-20T13:56:41.354Z,5.13
2019-03-20T13:59:37.041Z,4.75
2019-03-20T14:02:35.439Z,4.40
2019-03-20T14:05:32.295Z,4.17
2019-03-20T14:08:28.816Z,4.40
2019-03-20T14:11:25.887Z,3.97
2019-03-20T14:14:23.024Z,5.30
2019-03-20T14:17:19.453Z,4.23
2019-03-20T14:20:15.099Z,3.95
2019-03-20T14:23:11.913Z,3.93
2019-03-20T14:26:08.497Z,5.00
2019-03-20T14:29:04.346Z,4.42
2019-03-20T14:32:01.936Z,4.55
2019-03-20T14:34:57.743Z,4.47
2019-03-20T14:37:54.032Z,5.40
2019-03-20T14:40:51.238Z,4.50
2019-03-20T14:43:48.040Z,5.13
2019-03-20T14:46:47.313Z,4.93
2019-03-20T14:49:43.910Z,4.97
2019-03-20T14:52:40.489Z,5.37
2019-03-20T14:55:36.145Z,4.90
2019-03-20T14:58:32.427Z,5.17
2019-03-20T15:01:28.063Z,5.30
2019-03-20T15:04:25.425Z,5.10
2019-03-20T15:07:21.472Z,5.22
2019-03-20T15:10:18.373Z,5.10
2019-03-20T15:13:13.941Z,6.30
2019-03-20T15:16:15.004Z,5.30
2019-03-20T15:19:10.745Z,5.43
2019-03-20T15:22:08.393Z,5.77
2019-03-20T15:25:05.291Z,6.20
2019-03-20T15:28:01.227Z,5.97
2019-03-20T15:30:57.867Z,5.80
2019-03-20T15:33:53.508Z,5.90
2019-03-20T15:36:50.072Z,8.40
2019-03-20T15:39:44.760Z,5.63
2019-03-20T15:42:42.608Z,6.30
2019-03-20T15:45:38.194Z,5.70
2019-03-20T15:48:34.919Z,5.73
2019-03-20T15:51:32.502Z,5.87
2019-03-20T15:54:28.248Z,5.93
2019-03-20T15:57:24.997Z,5.30
2019-03-20T16:00:20.576Z,5.23
2019-03-20T16:03:26.113Z,5.50
2019-03-20T16:06:22.857Z,5.60
2019-03-20T16:09:18.833Z,4.90
2019-03-20T16:12:15.385Z,4.60
2019-03-20T16:15:12.282Z,5.17
2019-03-20T16:18:10.200Z,5.17
2019-03-20T16:21:06.002Z,5.23
2019-03-20T16:24:02.629Z,5.53
2019-03-20T16:26:58.483Z,5.30
2019-03-20T16:29:55.382Z,5.63
2019-03-20T16:32:51.918Z,5.60
2019-03-20T16:35:48.580Z,5.20
2019-03-20T16:38:45.413Z,5.00
2019-03-20T16:41:41.029Z,4.40
2019-03-20T16:44:37.632Z,4.92
2019-03-20T16:47:33.451Z,4.87
2019-03-20T16:50:30.043Z,4.40
2019-03-20T16:53:25.745Z,5.03
2019-03-20T16:56:22.340Z,4.53
2019-03-20T16:59:17.718Z,4.90
2019-03-20T17:02:15.355Z,5.23
2019-03-20T17:05:11.991Z,5.37
2019-03-20T17:08:08.688Z,5.12
2019-03-20T17:11:04.510Z,5.30
2019-03-20T17:14:01.687Z,4.63
2019-03-20T17:16:57.404Z,4.83
2019-03-20T17:19:54.940Z,5.17
2019-03-20T17:22:51.051Z,4.53
2019-03-20T17:25:47.931Z,4.30
2019-03-20T17:28:43.747Z,5.43
2019-03-20T17:31:41.437Z,5.17
2019-03-20T17:34:37.291Z,5.07
2019-03-20T17:37:34.030Z,4.70
2019-03-20T17:40:30.711Z,5.27
2019-03-20T17:43:27.721Z,6.53
2019-03-20T17:46:22.451Z,6.13
2019-03-20T17:49:19.094Z,5.73
2019-03-20T17:52:14.616Z,6.20
2019-03-20T17:55:11.290Z,5.87
2019-03-20T17:58:06.981Z,5.90
2019-03-20T18:01:03.399Z,6.03
2019-03-20T18:04:01.321Z,6.43
2019-03-20T18:06:58.338Z,7.17
2019-03-20T18:09:53.816Z,6.07
2019-03-20T18:12:50.676Z,7.07
2019-03-20T18:15:46.621Z,7.00
2019-03-20T18:18:43.448Z,7.57
2019-03-20T18:21:40.961Z,7.37
2019-03-20T18:24:37.112Z,7.87
2019-03-20T18:27:34.863Z,8.80
2019-03-20T18:30:34.703Z,14.00
2019-03-20T18:33:31.035Z,11.27
2019-03-20T18:36:25.865Z,8.27
2019-03-20T18:39:23.763Z,8.37
2019-03-20T18:42:19.561Z,9.10
2019-03-20T18:45:16.981Z,10.00
2019-03-20T18:48:13.575Z,11.73
2019-03-20T18:51:10.191Z,10.50
2019-03-20T18:54:06.914Z,9.90
2019-03-20T18:57:03.808Z,7.40
2019-03-20T19:00:03.275Z,10.80
2019-03-20T19:03:00.155Z,7.12
2019-03-20T19:06:09.141Z,5.77
2019-03-20T19:09:04.991Z,6.50
2019-03-20T19:12:08.487Z,6.27
2019-03-20T19:14:58.876Z,5.83
2019-03-20T19:17:55.833Z,6.30
2019-03-20T19:20:51.147Z,5.85
2019-03-20T19:23:49.147Z,6.67
2019-03-20T19:26:44.814Z,7.77
2019-03-20T19:29:41.573Z,6.75
2019-03-20T19:32:37.412Z,5.60
2019-03-20T19:35:33.774Z,6.10
2019-03-20T19:38:34.922Z,6.20
2019-03-20T19:41:26.524Z,5.90
2019-03-20T19:44:25.956Z,5.67
2019-03-20T19:47:21.931Z,6.03
2019-03-20T19:50:18.961Z,6.30
2019-03-20T19:53:14.337Z,5.60
2019-03-20T19:56:12.045Z,6.80
2019-03-20T19:59:07.934Z,6.80
2019-03-20T20:02:04.232Z,6.07
2019-03-20T20:05:01.852Z,7.77
2019-03-20T20:07:59.617Z,6.73
2019-03-20T20:10:55.361Z,6.97
2019-03-20T20:13:51.727Z,7.73
2019-03-20T20:16:47.413Z,7.17
2019-03-20T20:19:44.257Z,7.30
2019-03-20T20:22:39.661Z,6.80
2019-03-20T20:25:37.584Z,6.60
2019-03-20T20:28:35.005Z,6.80
2019-03-20T20:31:30.803Z,6.85
2019-03-20T20:34:27.568Z,7.03
2019-03-20T20:37:23.477Z,6.47
2019-03-20T20:40:20.083Z,6.17
2019-03-20T20:43:15.722Z,6.87
2019-03-20T20:46:13.491Z,5.33
2019-03-20T20:49:09.857Z,6.60
2019-03-20T20:52:06.167Z,6.10
2019-03-20T20:55:01.882Z,5.80
2019-03-20T20:57:58.269Z,6.50
2019-03-20T21:00:54.087Z,5.47
2019-03-20T21:03:50.588Z,7.30
2019-03-20T21:06:48.442Z,5.80
2019-03-20T21:09:46.060Z,6.72
2019-03-20T21:12:42.691Z,6.70
2019-03-20T21:15:54.793Z,7.70
2019-03-20T21:19:27.923Z,7.20
2019-03-20T21:22:51.008Z,7.87
2019-03-20T21:25:50.650Z,8.67
2019-03-20T21:29:45.057Z,9.20
2019-03-20T21:32:52.235Z,10.13
2019-03-20T21:36:11.990Z,9.57
2019-03-20T21:39:10.264Z,8.37
2019-03-20T21:42:32.422Z,7.30
2019-03-20T21:45:54.799Z,8.00
2019-03-20T21:48:49.445Z,6.75
2019-03-20T21:51:45.780Z,7.13
2019-03-20T21:55:08.599Z,6.85
2019-03-20T21:58:21.382Z,6.90
2019-03-20T22:01:52.067Z,6.43
2019-03-20T22:04:49.151Z,6.77
2019-03-20T22:07:46.217Z,6.17
2019-03-20T22:11:10.611Z,6.40
2019-03-20T22:14:13.577Z,6.13
2019-03-20T22:17:34.383Z,5.50
2019-03-20T22:21:01.400Z,6.20
2019-03-20T22:24:18.348Z,6.47
2019-03-20T22:27:42.381Z,6.23
2019-03-20T22:30:38.485Z,6.10
2019-03-20T22:33:58.682Z,5.53
2019-03-20T22:36:56.823Z,5.57
2019-03-20T22:40:27.094Z,5.90
2019-03-20T22:43:37.737Z,6.70
2019-03-20T22:46:57.469Z,7.27
2019-03-20T22:50:25.261Z,6.40
2019-03-20T22:53:57.188Z,5.73
2019-03-20T22:57:11.306Z,6.13
2019-03-20T23:00:08.787Z,6.60
2019-03-20T23:03:24.449Z,6.10
2019-03-20T23:06:22.432Z,6.33
2019-03-20T23:09:18.148Z,6.00
2019-03-20T23:12:17.816Z,5.97
2019-03-20T23:15:13.000Z,5.30
2019-03-20T23:18:10.458Z,5.50
2019-03-20T23:21:07.934Z,6.47
2019-03-20T23:24:03.858Z,5.42
2019-03-20T23:27:01.047Z,6.37
2019-03-20T23:29:59.368Z,6.47
2019-03-20T23:32:56.188Z,6.90
2019-03-20T23:35:53.342Z,5.97
2019-03-20T23:38:48.549Z,6.93
2019-03-20T23:41:45.287Z,5.30
2019-03-20T23:44:41.550Z,6.33
2019-03-20T23:47:41.786Z,5.80
2019-03-20T23:50:37.923Z,6.13
2019-03-20T23:53:35.194Z,6.50
2019-03-20T23:56:32.129Z,7.70
2019-03-20T23:59:30.077Z,6.67
